createdAt,value
2019-04-06T00:01:41.431Z,27.27
2019-04-06T00:04:07.261Z,27.97
2019-04-06T00:06:33.086Z,27.70
2019-04-06T00:08:58.914Z,27.40
2019-04-06T00:11:24.753Z,27.20
2019-04-06T00:13:50.702Z,26.57
2019-04-06T00:16:16.523Z,27.53
2019-04-06T00:18:42.365Z,27.50
2019-04-06T00:21:08.226Z,28.20
2019-04-06T00:23:34.083Z,27.00
2019-04-06T00:25:59.909Z,27.97
2019-04-06T00:28:25.748Z,26.40
2019-04-06T00:30:56.270Z,26.23
2019-04-06T00:33:24.033Z,26.40
2019-04-06T00:35:49.898Z,25.93
2019-04-06T00:38:15.729Z,19.83
2019-04-06T00:40:41.555Z,20.40
2019-04-06T00:43:07.578Z,21.30
2019-04-06T00:45:33.426Z,20.30
2019-04-06T00:47:59.298Z,23.23
2019-04-06T00:50:25.128Z,22.47
2019-04-06T00:52:50.996Z,18.47
2019-04-06T00:55:16.833Z,18.13
2019-04-06T00:57:42.661Z,17.43
2019-04-06T01:00:08.611Z,17.97
2019-04-06T01:02:34.450Z,17.23
2019-04-06T01:05:00.314Z,18.30
2019-04-06T01:07:26.206Z,17.03
2019-04-06T01:09:52.456Z,16.07
2019-04-06T01:12:18.283Z,15.03
2019-04-06T01:14:44.205Z,14.60
2019-04-06T01:17:10.054Z,15.13
2019-04-06T01:19:35.992Z,14.93
2019-04-06T01:22:01.909Z,13.73
2019-04-06T01:24:27.834Z,13.93
2019-04-06T01:26:53.751Z,15.00
2019-04-06T01:29:19.582Z,12.93
2019-04-06T01:31:45.436Z,14.17
2019-04-06T01:34:11.273Z,14.20
2019-04-06T01:36:37.098Z,13.40
2019-04-06T01:39:04.373Z,14.47
2019-04-06T01:41:30.207Z,13.60
2019-04-06T01:43:56.064Z,14.00
2019-04-06T01:46:21.904Z,14.27
2019-04-06T01:48:47.748Z,14.27
2019-04-06T01:51:13.624Z,14.20
2019-04-06T01:53:39.478Z,13.27
2019-04-06T01:56:05.318Z,13.63
2019-04-06T01:58:31.151Z,13.17
2019-04-06T02:01:10.803Z,13.93
2019-04-06T02:03:36.615Z,13.67
2019-04-06T02:06:02.805Z,13.60
2019-04-06T02:08:28.625Z,13.63
2019-04-06T02:10:54.447Z,14.30
2019-04-06T02:13:20.278Z,13.97
2019-04-06T02:15:46.114Z,14.37
2019-04-06T02:18:11.949Z,14.10
2019-04-06T02:20:37.836Z,14.10
2019-04-06T02:23:03.759Z,13.27
2019-04-06T02:25:29.750Z,15.03
2019-04-06T02:27:55.662Z,14.80
2019-04-06T02:30:23.416Z,14.90
2019-04-06T02:33:00.061Z,14.90
2019-04-06T02:35:36.771Z,14.33
2019-04-06T02:38:04.474Z,14.73
2019-04-06T02:40:34.764Z,13.97
2019-04-06T02:43:02.495Z,14.33
2019-04-06T02:45:28.362Z,14.30
2019-04-06T02:47:54.220Z,15.10
2019-04-06T02:50:20.155Z,14.03
2019-04-06T02:52:45.992Z,14.80
2019-04-06T02:55:11.834Z,14.23
2019-04-06T02:57:37.703Z,14.50
2019-04-06T03:00:04.919Z,14.50
2019-04-06T03:02:30.760Z,13.57
2019-04-06T03:04:56.612Z,14.60
2019-04-06T03:07:22.546Z,13.97
2019-04-06T03:09:48.481Z,14.73
2019-04-06T03:12:14.424Z,14.83
2019-04-06T03:14:40.243Z,14.70
2019-04-06T03:17:06.100Z,14.53
2019-04-06T03:19:31.936Z,15.43
2019-04-06T03:21:57.762Z,16.10
2019-04-06T03:24:23.631Z,16.60
2019-04-06T03:27:00.666Z,15.80
2019-04-06T03:29:17.286Z,16.10
2019-04-06T03:31:43.208Z,14.77
2019-04-06T03:34:09.054Z,15.20
2019-04-06T03:36:35.092Z,15.50
2019-04-06T03:39:01.042Z,15.33
2019-04-06T03:41:26.932Z,14.60
2019-04-06T03:43:52.843Z,14.40
2019-04-06T03:46:18.712Z,13.90
2019-04-06T03:48:44.660Z,15.20
2019-04-06T03:51:10.801Z,14.70
2019-04-06T03:53:36.723Z,13.93
2019-04-06T03:56:02.632Z,14.93
2019-04-06T03:58:28.556Z,15.30
2019-04-06T04:00:54.474Z,14.80
2019-04-06T04:03:20.445Z,15.30
2019-04-06T04:05:46.289Z,14.83
2019-04-06T04:08:12.240Z,14.70
2019-04-06T04:10:38.402Z,15.10
2019-04-06T04:13:04.422Z,14.33
2019-04-06T04:15:31.355Z,15.40
2019-04-06T04:17:57.279Z,14.50
2019-04-06T04:20:23.220Z,15.37
2019-04-06T04:22:49.457Z,15.37
2019-04-06T04:25:15.291Z,14.70
2019-04-06T04:27:41.149Z,15.93
2019-04-06T04:30:07.399Z,15.33
2019-04-06T04:32:33.231Z,16.03
2019-04-06T04:34:59.092Z,15.77
2019-04-06T04:37:25.266Z,15.53
2019-04-06T04:39:51.321Z,15.47
2019-04-06T04:42:17.219Z,16.20
2019-04-06T04:44:43.153Z,14.77
2019-04-06T04:47:09.027Z,15.37
2019-04-06T04:49:34.978Z,15.70
2019-04-06T04:52:00.830Z,15.97
2019-04-06T04:54:26.875Z,15.53
2019-04-06T04:56:52.813Z,15.83
2019-04-06T04:59:18.754Z,15.70
2019-04-06T05:01:44.574Z,16.80
2019-04-06T05:04:10.415Z,16.23
2019-04-06T05:06:36.619Z,16.10
2019-04-06T05:09:04.343Z,17.20
2019-04-06T05:11:30.181Z,16.03
2019-04-06T05:14:34.074Z,16.20
2019-04-06T05:16:59.910Z,16.20
2019-04-06T05:19:25.798Z,15.80
2019-04-06T05:21:51.714Z,16.03
2019-04-06T05:24:17.574Z,17.03
2019-04-06T05:26:43.580Z,16.53
2019-04-06T05:29:09.466Z,16.73
2019-04-06T05:31:35.283Z,17.47
2019-04-06T05:34:01.115Z,16.87
2019-04-06T05:36:26.975Z,16.30
2019-04-06T05:38:52.941Z,17.20
2019-04-06T05:41:19.152Z,15.97
2019-04-06T05:43:45.012Z,16.87
2019-04-06T05:46:10.874Z,15.80
2019-04-06T05:48:37.016Z,16.20
2019-04-06T05:51:03.174Z,18.07
2019-04-06T05:53:29.232Z,17.23
2019-04-06T05:55:55.440Z,17.07
2019-04-06T05:58:21.302Z,17.53
2019-04-06T06:00:47.170Z,17.10
2019-04-06T06:03:15.355Z,17.13
2019-04-06T06:05:41.199Z,18.17
2019-04-06T06:08:07.163Z,17.73
2019-04-06T06:10:33.774Z,19.40
2019-04-06T06:12:59.800Z,19.37
2019-04-06T06:15:25.687Z,19.13
2019-04-06T06:17:51.539Z,18.40
2019-04-06T06:20:17.480Z,17.53
2019-04-06T06:22:43.336Z,17.77
2019-04-06T06:25:09.778Z,17.90
2019-04-06T06:27:35.838Z,19.77
2019-04-06T06:30:03.594Z,19.07
2019-04-06T06:32:31.259Z,17.87
2019-04-06T06:34:57.161Z,18.13
2019-04-06T06:37:24.365Z,19.03
2019-04-06T06:39:50.190Z,18.70
2019-04-06T06:42:16.018Z,19.10
2019-04-06T06:44:42.121Z,19.03
2019-04-06T06:47:10.048Z,18.90
2019-04-06T06:49:35.980Z,19.60
2019-04-06T06:52:01.836Z,19.87
2019-04-06T06:54:27.716Z,19.05
2019-04-06T06:56:53.575Z,19.75
2019-04-06T06:59:19.650Z,20.10
2019-04-06T07:01:45.594Z,18.57
2019-04-06T07:04:11.453Z,19.70
2019-04-06T07:06:37.368Z,19.50
2019-04-06T07:09:05.540Z,19.23
2019-04-06T07:11:31.435Z,19.03
2019-04-06T07:13:57.350Z,19.30
2019-04-06T07:16:23.392Z,19.10
2019-04-06T07:18:49.360Z,19.83
2019-04-06T07:21:16.819Z,19.57
2019-04-06T07:23:42.948Z,20.40
2019-04-06T07:26:08.998Z,19.92
2019-04-06T07:28:38.147Z,20.52
2019-04-06T07:31:06.024Z,20.10
2019-04-06T07:33:32.289Z,20.30
2019-04-06T07:35:58.279Z,19.77
2019-04-06T07:38:24.336Z,19.90
2019-04-06T07:40:50.316Z,20.27
2019-04-06T07:43:16.168Z,19.82
2019-04-06T07:45:42.052Z,19.52
2019-04-06T07:48:07.997Z,20.12
2019-04-06T07:50:33.942Z,19.62
2019-04-06T07:52:59.951Z,19.75
2019-04-06T07:55:26.265Z,20.07
2019-04-06T07:57:54.594Z,21.70
2019-04-06T08:00:20.640Z,21.67
2019-04-06T08:02:46.625Z,23.38
2019-04-06T08:05:13.674Z,21.35
2019-04-06T08:07:40.354Z,20.52
2019-04-06T08:10:06.680Z,21.30
2019-04-06T08:12:32.559Z,20.97
2019-04-06T08:14:58.525Z,21.50
2019-04-06T08:17:24.483Z,21.73
2019-04-06T08:19:50.395Z,22.32
2019-04-06T08:22:16.617Z,21.48
2019-04-06T08:24:42.627Z,21.40
2019-04-06T08:27:08.631Z,21.48
2019-04-06T08:29:34.607Z,21.25
2019-04-06T08:32:00.591Z,21.70
2019-04-06T08:34:26.603Z,22.60
2019-04-06T08:36:52.453Z,20.90
2019-04-06T08:39:18.311Z,20.62
2019-04-06T08:41:44.369Z,20.85
2019-04-06T08:44:10.313Z,21.95
2019-04-06T08:46:36.161Z,21.77
2019-04-06T08:49:02.198Z,22.62
2019-04-06T08:51:28.173Z,21.45
2019-04-06T08:53:54.163Z,21.73
2019-04-06T08:56:20.065Z,20.05
2019-04-06T08:58:45.922Z,19.95
2019-04-06T09:01:13.938Z,21.07
2019-04-06T09:03:39.869Z,20.32
2019-04-06T09:06:05.739Z,20.88
2019-04-06T09:08:31.667Z,20.82
2019-04-06T09:10:57.517Z,20.60
2019-04-06T09:13:23.378Z,18.85
2019-04-06T09:15:49.491Z,19.57
2019-04-06T09:18:15.509Z,20.23
2019-04-06T09:20:41.558Z,19.25
2019-04-06T09:23:07.811Z,20.60
2019-04-06T09:25:33.707Z,20.95
2019-04-06T09:27:59.580Z,19.52
2019-04-06T09:30:25.720Z,20.90
2019-04-06T09:32:51.668Z,20.20
2019-04-06T09:35:17.508Z,18.40
2019-04-06T09:37:43.371Z,20.25
2019-04-06T09:40:09.615Z,18.45
2019-04-06T09:42:35.595Z,19.95
2019-04-06T09:45:12.261Z,18.92
2019-04-06T09:47:43.357Z,18.60
2019-04-06T09:50:17.732Z,18.20
2019-04-06T09:52:54.433Z,18.87
2019-04-06T09:55:34.229Z,17.67
2019-04-06T09:58:04.611Z,18.20
2019-04-06T10:00:41.430Z,18.10
2019-04-06T10:03:09.322Z,16.87
2019-04-06T10:05:37.306Z,16.07
2019-04-06T10:08:05.414Z,17.02
2019-04-06T10:10:33.334Z,16.60
2019-04-06T10:13:17.757Z,17.23
2019-04-06T10:16:02.210Z,16.05
2019-04-06T10:18:33.002Z,16.62
2019-04-06T10:21:04.118Z,16.17
2019-04-06T10:23:48.770Z,16.97
2019-04-06T10:26:25.428Z,15.32
2019-04-06T10:29:10.112Z,16.73
2019-04-06T10:31:47.108Z,16.27
2019-04-06T10:34:15.181Z,15.83
2019-04-06T10:36:43.060Z,15.60
2019-04-06T10:39:13.781Z,14.73
2019-04-06T10:41:44.170Z,13.88
2019-04-06T10:44:15.076Z,14.05
2019-04-06T10:46:51.770Z,14.18
2019-04-06T10:49:32.192Z,12.95
2019-04-06T10:52:18.271Z,14.65
2019-04-06T10:54:51.609Z,14.50
2019-04-06T10:57:19.952Z,14.80
2019-04-06T11:00:00.936Z,14.18
2019-04-06T11:02:40.512Z,14.43
2019-04-06T11:05:08.489Z,14.93
2019-04-06T11:07:53.073Z,15.05
2019-04-06T11:10:23.436Z,14.60
2019-04-06T11:13:03.192Z,14.60
2019-04-06T11:15:47.685Z,15.32
2019-04-06T11:18:15.629Z,15.08
2019-04-06T11:20:54.993Z,15.25
2019-04-06T11:23:22.755Z,15.80
2019-04-06T11:25:52.062Z,14.58
2019-04-06T11:28:34.906Z,13.93
2019-04-06T11:31:04.168Z,15.68
2019-04-06T11:33:32.240Z,15.95
2019-04-06T11:36:16.840Z,15.83
2019-04-06T11:38:44.779Z,15.70
2019-04-06T11:41:12.607Z,15.98
2019-04-06T11:43:42.909Z,16.23
2019-04-06T11:46:10.668Z,17.20
2019-04-06T11:48:38.668Z,15.18
2019-04-06T11:51:23.059Z,17.50
2019-04-06T11:54:05.934Z,16.93
2019-04-06T11:56:50.118Z,17.55
2019-04-06T11:59:26.118Z,16.27
2019-04-06T12:02:12.046Z,16.67
2019-04-06T12:04:56.612Z,17.37
2019-04-06T12:07:24.358Z,17.00
2019-04-06T12:09:54.913Z,16.57
2019-04-06T12:12:39.636Z,15.93
2019-04-06T12:15:07.439Z,16.05
2019-04-06T12:17:38.154Z,15.10
2019-04-06T12:20:23.975Z,16.30
2019-04-06T12:22:51.790Z,15.48
2019-04-06T12:25:19.710Z,16.57
2019-04-06T12:28:02.318Z,15.63
2019-04-06T12:30:39.330Z,16.20
2019-04-06T12:33:10.102Z,16.45
2019-04-06T12:35:38.337Z,16.42
2019-04-06T12:38:06.362Z,17.00
2019-04-06T12:40:40.182Z,15.40
2019-04-06T12:43:09.436Z,15.55
2019-04-06T12:45:40.061Z,15.90
2019-04-06T12:48:20.028Z,15.08
2019-04-06T12:50:47.804Z,15.90
2019-04-06T12:53:21.644Z,16.50
2019-04-06T12:56:04.749Z,15.78
2019-04-06T12:58:45.124Z,15.13
2019-04-06T13:01:25.070Z,14.35
2019-04-06T13:03:53.290Z,14.85
2019-04-06T13:06:32.877Z,14.73
2019-04-06T13:09:09.278Z,14.70
2019-04-06T13:11:49.339Z,14.78
2019-04-06T13:14:26.112Z,13.83
2019-04-06T13:16:59.846Z,13.60
2019-04-06T13:19:40.477Z,12.78
2019-04-06T13:22:23.415Z,13.40
2019-04-06T13:25:09.515Z,13.18
2019-04-06T13:27:37.350Z,13.45
2019-04-06T13:30:23.367Z,12.53
2019-04-06T13:33:00.273Z,12.70
2019-04-06T13:35:34.094Z,12.03
2019-04-06T13:38:19.948Z,12.33
2019-04-06T13:41:05.886Z,12.47
2019-04-06T13:43:36.518Z,13.32
2019-04-06T13:46:06.943Z,12.40
2019-04-06T13:48:34.679Z,11.50
2019-04-06T13:51:20.653Z,11.35
2019-04-06T13:54:05.075Z,11.43
2019-04-06T13:56:55.225Z,10.93
2019-04-06T13:59:31.977Z,11.30
2019-04-06T14:02:16.487Z,11.25
2019-04-06T14:05:00.855Z,9.55
2019-04-06T14:07:45.113Z,10.10
2019-04-06T14:10:29.483Z,9.93
2019-04-06T14:13:09.309Z,9.53
2019-04-06T14:15:53.747Z,10.55
2019-04-06T14:18:33.465Z,8.78
2019-04-06T14:21:07.062Z,10.05
2019-04-06T14:23:35.025Z,10.93
2019-04-06T14:26:08.843Z,11.95
2019-04-06T14:28:36.776Z,10.93
2019-04-06T14:31:04.583Z,12.18
2019-04-06T14:33:32.362Z,11.90
2019-04-06T14:36:02.991Z,11.03
2019-04-06T14:38:45.527Z,11.48
2019-04-06T14:41:29.764Z,11.10
2019-04-06T14:44:06.523Z,10.23
2019-04-06T14:46:34.380Z,10.45
2019-04-06T14:49:13.892Z,11.43
2019-04-06T14:51:34.754Z,10.80
2019-04-06T14:54:05.443Z,9.93
2019-04-06T14:56:49.977Z,11.50
2019-04-06T14:59:20.631Z,9.78
2019-04-06T15:01:57.144Z,10.30
2019-04-06T15:04:26.945Z,10.30
2019-04-06T15:07:11.588Z,9.35
2019-04-06T15:09:36.877Z,9.10
2019-04-06T15:12:04.941Z,9.45
2019-04-06T15:14:38.640Z,8.90
2019-04-06T15:17:06.459Z,9.03
2019-04-06T15:19:36.731Z,10.03
2019-04-06T15:22:10.239Z,9.68
2019-04-06T15:24:54.571Z,9.28
2019-04-06T15:27:30.595Z,9.70
2019-04-06T15:30:01.229Z,9.13
2019-04-06T15:32:31.605Z,9.70
2019-04-06T15:35:05.047Z,10.00
2019-04-06T15:37:41.617Z,10.35
2019-04-06T15:40:12.355Z,11.73
2019-04-06T15:42:49.091Z,11.30
2019-04-06T15:45:28.863Z,12.15
2019-04-06T15:48:05.603Z,11.95
2019-04-06T15:50:33.624Z,12.10
2019-04-06T15:53:07.514Z,11.53
2019-04-06T15:55:35.295Z,11.12
2019-04-06T15:58:03.045Z,11.70
2019-04-06T16:00:30.824Z,12.20
2019-04-06T16:02:58.847Z,11.70
2019-04-06T16:05:39.002Z,11.48
2019-04-06T16:08:23.418Z,11.93
2019-04-06T16:10:53.743Z,12.53
2019-04-06T16:13:22.605Z,13.18
2019-04-06T16:16:07.163Z,12.98
2019-04-06T16:18:43.684Z,12.65
2019-04-06T16:21:11.476Z,12.23
2019-04-06T16:23:39.321Z,12.75
2019-04-06T16:26:16.485Z,12.90
2019-04-06T16:28:44.698Z,13.18
2019-04-06T16:31:28.833Z,12.73
2019-04-06T16:33:56.602Z,12.28
2019-04-06T16:36:34.626Z,12.37
2019-04-06T16:41:48.302Z,13.18
2019-04-06T16:44:21.880Z,13.45
2019-04-06T16:47:04.989Z,11.83
2019-04-06T16:49:35.831Z,11.93
2019-04-06T16:52:12.619Z,12.50
2019-04-06T16:54:46.928Z,12.98
2019-04-06T16:57:23.896Z,12.75
2019-04-06T17:00:16.182Z,11.75
2019-04-06T17:02:33.517Z,13.03
2019-04-06T17:05:01.389Z,12.15
2019-04-06T17:07:41.296Z,12.05
2019-04-06T17:10:20.727Z,12.98
2019-04-06T17:12:54.042Z,10.75
2019-04-06T17:15:21.806Z,13.30
2019-04-06T17:17:49.538Z,12.98
2019-04-06T17:20:32.335Z,12.10
2019-04-06T17:23:02.663Z,12.45
2019-04-06T17:25:33.088Z,14.55
2019-04-06T17:28:04.272Z,12.58
2019-04-06T17:30:33.749Z,12.60
2019-04-06T17:33:18.571Z,12.15
2019-04-06T17:35:58.404Z,11.90
2019-04-06T17:38:31.824Z,12.10
2019-04-06T17:41:11.766Z,11.35
2019-04-06T17:43:48.622Z,11.93
2019-04-06T17:46:33.352Z,12.28
2019-04-06T17:49:04.366Z,12.07
2019-04-06T17:51:38.759Z,11.88
2019-04-06T17:54:23.103Z,11.55
2019-04-06T17:57:09.540Z,12.50
2019-04-06T17:59:55.413Z,12.75
2019-04-06T18:02:32.294Z,11.48
2019-04-06T18:05:16.873Z,12.73
2019-04-06T18:08:01.264Z,12.60
2019-04-06T18:10:32.341Z,11.70
2019-04-06T18:13:09.146Z,11.65
2019-04-06T18:15:35.033Z,11.88
2019-04-06T18:18:00.878Z,10.82
2019-04-06T18:20:28.045Z,11.22
2019-04-06T18:22:53.892Z,12.20
2019-04-06T18:25:19.753Z,11.05
2019-04-06T18:27:46.100Z,12.07
2019-04-06T18:30:16.079Z,12.13
2019-04-06T18:32:43.877Z,11.08
2019-04-06T18:35:10.809Z,11.55
2019-04-06T18:37:42.633Z,10.72
2019-04-06T18:40:13.600Z,11.80
2019-04-06T18:42:39.996Z,11.28
2019-04-06T18:45:06.361Z,10.95
2019-04-06T18:47:32.427Z,11.43
2019-04-06T18:49:58.427Z,11.57
2019-04-06T18:52:24.572Z,10.85
2019-04-06T18:54:50.664Z,11.60
2019-04-06T18:57:16.563Z,10.75
2019-04-06T18:59:42.620Z,10.35
2019-04-06T19:02:08.773Z,10.60
2019-04-06T19:04:34.681Z,11.15
2019-04-06T19:07:00.574Z,11.25
2019-04-06T19:09:26.707Z,10.78
2019-04-06T19:11:55.550Z,10.50
2019-04-06T19:14:20.358Z,11.25
2019-04-06T19:16:46.576Z,10.68
2019-04-06T19:19:12.623Z,11.30
2019-04-06T19:21:38.760Z,11.38
2019-04-06T19:24:04.651Z,11.73
2019-04-06T19:26:33.809Z,11.35
2019-04-06T19:29:01.875Z,13.22
2019-04-06T19:31:30.074Z,13.20
2019-04-06T19:33:58.869Z,12.50
2019-04-06T19:36:24.843Z,11.48
2019-04-06T19:38:53.487Z,20.95
2019-04-06T19:41:21.712Z,12.50
2019-04-06T19:43:47.841Z,13.08
2019-04-06T19:46:13.841Z,13.28
2019-04-06T19:48:40.776Z,11.45
2019-04-06T19:51:07.189Z,11.22
2019-04-06T19:53:36.167Z,12.40
2019-04-06T19:56:02.168Z,12.80
2019-04-06T19:58:28.144Z,11.57
2019-04-06T20:00:54.142Z,11.65
2019-04-06T20:03:20.433Z,11.15
2019-04-06T20:05:46.753Z,10.75
2019-04-06T20:08:12.738Z,11.22
2019-04-06T20:10:38.712Z,12.40
2019-04-06T20:13:05.028Z,11.15
2019-04-06T20:15:31.019Z,11.35
2019-04-06T20:17:57.017Z,11.78
2019-04-06T20:20:26.575Z,11.30
2019-04-06T20:22:52.765Z,11.78
2019-04-06T20:25:19.230Z,10.80
2019-04-06T20:27:45.223Z,10.60
2019-04-06T20:30:11.373Z,10.78
2019-04-06T20:32:37.315Z,11.38
2019-04-06T20:35:05.580Z,11.73
2019-04-06T20:37:31.867Z,11.05
2019-04-06T20:39:57.996Z,11.30
2019-04-06T20:42:23.913Z,13.83
2019-04-06T20:44:49.876Z,12.23
2019-04-06T20:47:15.915Z,11.73
2019-04-06T20:49:41.765Z,11.68
2019-04-06T20:52:07.754Z,12.35
2019-04-06T20:54:33.839Z,11.00
2019-04-06T20:56:59.799Z,11.05
2019-04-06T20:59:25.693Z,11.80
2019-04-06T21:01:52.101Z,11.53
2019-04-06T21:04:18.155Z,12.10
2019-04-06T21:06:43.983Z,12.90
2019-04-06T21:09:14.020Z,11.28
2019-04-06T21:11:40.435Z,11.00
2019-04-06T21:14:06.372Z,11.48
2019-04-06T21:16:32.320Z,11.55
2019-04-06T21:18:58.173Z,11.63
2019-04-06T21:21:24.055Z,11.45
2019-04-06T21:23:50.036Z,11.70
2019-04-06T21:26:16.116Z,11.00
2019-04-06T21:28:42.134Z,11.38
2019-04-06T21:31:08.057Z,10.90
2019-04-06T21:33:34.388Z,12.58
2019-04-06T21:36:00.549Z,10.30
2019-04-06T21:38:26.747Z,10.90
2019-04-06T21:40:55.338Z,12.78
2019-04-06T21:43:38.016Z,12.05
2019-04-06T21:46:02.900Z,11.73
2019-04-06T21:48:28.875Z,11.05
2019-04-06T21:50:54.866Z,11.18
2019-04-06T21:53:20.808Z,11.10
2019-04-06T21:55:47.135Z,12.70
2019-04-06T21:58:13.131Z,12.20
2019-04-06T22:00:41.090Z,11.88
2019-04-06T22:03:07.227Z,12.50
2019-04-06T22:05:33.106Z,12.58
2019-04-06T22:07:59.041Z,11.70
2019-04-06T22:10:24.904Z,11.18
2019-04-06T22:12:50.853Z,11.78
2019-04-06T22:15:16.774Z,13.35
2019-04-06T22:17:42.689Z,11.95
2019-04-06T22:20:08.856Z,11.90
2019-04-06T22:22:35.432Z,11.97
2019-04-06T22:25:02.226Z,12.57
2019-04-06T22:27:28.968Z,12.30
2019-04-06T22:29:55.512Z,11.35
2019-04-06T22:32:21.406Z,11.63
2019-04-06T22:34:47.570Z,14.70
2019-04-06T22:37:13.997Z,12.37
2019-04-06T22:39:39.922Z,12.00
2019-04-06T22:42:05.780Z,11.77
2019-04-06T22:44:31.767Z,11.90
2019-04-06T22:46:57.974Z,11.70
2019-04-06T22:49:23.924Z,12.33
2019-04-06T22:51:49.964Z,11.70
2019-04-06T22:54:16.299Z,11.00
2019-04-06T22:56:42.856Z,11.97
2019-04-06T22:59:08.788Z,10.63
2019-04-06T23:01:36.898Z,11.53
2019-04-06T23:04:21.546Z,11.95
2019-04-06T23:06:49.824Z,11.48
2019-04-06T23:09:15.801Z,14.70
2019-04-06T23:11:41.798Z,12.58
2019-04-06T23:14:07.636Z,12.00
2019-04-06T23:16:33.486Z,12.83
2019-04-06T23:18:59.615Z,12.07
2019-04-06T23:21:25.904Z,11.15
2019-04-06T23:23:51.963Z,11.63
2019-04-06T23:26:17.938Z,11.63
2019-04-06T23:28:44.630Z,12.40
2019-04-06T23:31:10.806Z,12.37
2019-04-06T23:33:36.844Z,12.10
2019-04-06T23:36:03.296Z,12.00
2019-04-06T23:38:29.365Z,11.67
2019-04-06T23:40:55.233Z,11.53
2019-04-06T23:43:21.208Z,12.27
2019-04-06T23:45:47.249Z,11.03
2019-04-06T23:48:13.081Z,12.07
2019-04-06T23:50:39.499Z,12.00
2019-04-06T23:53:05.445Z,11.67
2019-04-06T23:55:31.881Z,11.83
2019-04-06T23:57:59.784Z,13.43
